Time;durP1;ratioP1;P1;durP2;ratioP2;P2;SDS_P1;SDS_P2;PMS_P1;PMS_P2;Temp;Humidity;BMP_temperature;BMP_pressure;BME280_temperature;BME280_humidity;BME280_pressure;Samples;Min_cycle;Max_cycle;Signal;HPM_P1;HPM_P2
2021/03/07 00:01:22;;;;;;;9.90;5.77;;;;;;;;;;5067165;28;20033;-59
2021/03/07 00:03:47;;;;;;;18.10;5.40;;;;;;;;;;5070921;28;20524;-59
2021/03/07 00:06:12;;;;;;;16.20;5.93;;;;;;;;;;5069256;28;20101;-58
2021/03/07 00:08:38;;;;;;;12.80;6.10;;;;;;;;;;5071413;28;20045;-59
2021/03/07 00:11:03;;;;;;;17.03;9.10;;;;;;;;;;5070157;28;20045;-58
2021/03/07 00:13:28;;;;;;;16.67;7.17;;;;;;;;;;5069814;28;20059;-58
2021/03/07 00:15:54;;;;;;;15.60;6.17;;;;;;;;;;5070775;28;20037;-58
2021/03/07 00:18:19;;;;;;;17.43;7.00;;;;;;;;;;5070289;28;20035;-58
2021/03/07 00:20:45;;;;;;;13.60;6.90;;;;;;;;;;5071092;28;20040;-59
2021/03/07 00:23:10;;;;;;;16.27;6.47;;;;;;;;;;5068731;28;20036;-58
2021/03/07 00:25:35;;;;;;;15.70;6.73;;;;;;;;;;5070788;28;20056;-58
2021/03/07 00:28:01;;;;;;;17.03;7.30;;;;;;;;;;5070961;28;20499;-59
2021/03/07 00:30:26;;;;;;;16.57;7.23;;;;;;;;;;5070325;28;20016;-58
2021/03/07 00:32:51;;;;;;;13.47;5.97;;;;;;;;;;5072220;28;20129;-60
2021/03/07 00:35:17;;;;;;;14.80;6.57;;;;;;;;;;5073840;28;20043;-59
2021/03/07 00:37:42;;;;;;;16.17;7.57;;;;;;;;;;5056359;28;20036;-59
2021/03/07 00:40:09;;;;;;;13.23;6.30;;;;;;;;;;5073736;28;20049;-58
2021/03/07 00:42:34;;;;;;;13.32;5.90;;;;;;;;;;5056447;28;20392;-59
2021/03/07 00:45:00;;;;;;;19.13;6.47;;;;;;;;;;5074085;28;20032;-59
2021/03/07 00:47:25;;;;;;;22.37;7.23;;;;;;;;;;5073505;28;20999;-59
2021/03/07 00:49:50;;;;;;;14.03;6.00;;;;;;;;;;5074070;28;20043;-59
2021/03/07 00:52:16;;;;;;;14.23;6.47;;;;;;;;;;5055426;28;20028;-59
2021/03/07 00:54:41;;;;;;;14.07;6.87;;;;;;;;;;5073882;28;20016;-58
2021/03/07 00:57:07;;;;;;;12.53;6.50;;;;;;;;;;5073629;28;20127;-58
2021/03/07 00:59:32;;;;;;;13.75;6.68;;;;;;;;;;5055956;28;20103;-58
2021/03/07 01:01:57;;;;;;;17.20;6.53;;;;;;;;;;5073690;28;20037;-60
2021/03/07 01:04:23;;;;;;;15.37;6.33;;;;;;;;;;5055231;28;20460;-59
2021/03/07 01:06:48;;;;;;;20.93;7.67;;;;;;;;;;5073731;28;20037;-59
2021/03/07 01:09:14;;;;;;;13.57;6.30;;;;;;;;;;5073069;28;20384;-59
2021/03/07 01:11:39;;;;;;;13.57;7.30;;;;;;;;;;5074007;28;20119;-59
2021/03/07 01:14:05;;;;;;;13.17;6.20;;;;;;;;;;5055751;28;20060;-59
2021/03/07 01:16:30;;;;;;;18.15;7.95;;;;;;;;;;5072815;28;20468;-59
2021/03/07 01:18:56;;;;;;;19.27;6.60;;;;;;;;;;5073438;28;20035;-59
2021/03/07 01:21:21;;;;;;;13.30;5.77;;;;;;;;;;5072689;28;20039;-59
2021/03/07 01:23:46;;;;;;;19.50;8.17;;;;;;;;;;5039049;28;20067;-59
2021/03/07 01:26:12;;;;;;;13.70;6.80;;;;;;;;;;5071453;28;20041;-59
2021/03/07 01:28:37;;;;;;;12.63;6.03;;;;;;;;;;5073483;28;20102;-59
2021/03/07 01:31:02;;;;;;;13.77;5.97;;;;;;;;;;5073469;28;20025;-59
2021/03/07 01:33:28;;;;;;;16.00;7.00;;;;;;;;;;5072622;28;20116;-59
2021/03/07 01:35:53;;;;;;;13.03;6.30;;;;;;;;;;5073428;28;20037;-60
2021/03/07 01:38:19;;;;;;;13.50;6.63;;;;;;;;;;5072714;28;20029;-60
2021/03/07 01:40:46;;;;;;;13.37;6.73;;;;;;;;;;5073025;28;20155;-59
2021/03/07 01:43:12;;;;;;;15.10;6.80;;;;;;;;;;5072881;28;20068;-59
2021/03/07 01:45:37;;;;;;;15.65;6.25;;;;;;;;;;5054537;28;20048;-59
2021/03/07 01:48:05;;;;;;;16.37;6.57;;;;;;;;;;5054613;28;20127;-59
2021/03/07 01:50:31;;;;;;;14.45;6.95;;;;;;;;;;5072430;28;20052;-59
2021/03/07 01:52:57;;;;;;;22.33;7.80;;;;;;;;;;5073025;28;20056;-58
2021/03/07 01:55:26;;;;;;;21.17;8.90;;;;;;;;;;5072072;28;20534;-58
2021/03/07 01:58:01;;;;;;;17.08;8.50;;;;;;;;;;5072532;28;20429;-59
2021/03/07 02:00:27;;;;;;;20.10;9.50;;;;;;;;;;5070763;28;20055;-58
2021/03/07 02:02:52;;;;;;;26.10;8.63;;;;;;;;;;5054300;28;20017;-59
2021/03/07 02:05:18;;;;;;;20.63;9.10;;;;;;;;;;5054149;28;20048;-58
2021/03/07 02:07:44;;;;;;;24.63;9.90;;;;;;;;;;5071257;28;20094;-59
2021/03/07 02:10:11;;;;;;;16.37;9.63;;;;;;;;;;5054893;28;20430;-59
2021/03/07 02:12:36;;;;;;;;;;;;;;;;;;5071912;28;20485;-58
2021/03/07 02:15:01;;;;;;;14.97;8.47;;;;;;;;;;5072568;28;20000;-58
2021/03/07 02:17:27;;;;;;;17.30;8.90;;;;;;;;;;5071638;28;20028;-58
2021/03/07 02:19:52;;;;;;;15.60;8.03;;;;;;;;;;5072175;28;20029;-59
2021/03/07 02:22:31;;;;;;;18.50;9.10;;;;;;;;;;5071830;28;20024;-59
2021/03/07 02:24:57;;;;;;;18.05;9.75;;;;;;;;;;5072488;28;20060;-59
2021/03/07 02:27:22;;;;;;;19.97;9.47;;;;;;;;;;5071429;28;20083;-59
2021/03/07 02:29:48;;;;;;;20.63;9.33;;;;;;;;;;5072421;28;20253;-59
2021/03/07 02:32:21;;;;;;;17.23;8.37;;;;;;;;;;5071881;28;20384;-58
2021/03/07 02:34:58;;;;;;;22.35;10.55;;;;;;;;;;5071689;28;20547;-60
2021/03/07 02:37:23;;;;;;;16.77;9.40;;;;;;;;;;5071492;28;20032;-59
2021/03/07 02:39:49;;;;;;;19.03;10.10;;;;;;;;;;5071826;28;20045;-60
2021/03/07 02:42:22;;;;;;;17.95;9.65;;;;;;;;;;5072188;28;20495;-59
2021/03/07 02:44:58;;;;;;;19.90;9.60;;;;;;;;;;5072196;28;20040;-59
2021/03/07 02:47:25;;;;;;;18.95;9.57;;;;;;;;;;5053356;28;20032;-60
2021/03/07 02:49:51;;;;;;;21.67;10.50;;;;;;;;;;5071953;28;20042;-59
2021/03/07 02:52:17;;;;;;;19.63;8.77;;;;;;;;;;5071880;28;20086;-59
2021/03/07 02:54:43;;;;;;;25.02;10.63;;;;;;;;;;5036503;28;20036;-59
2021/03/07 02:57:09;;;;;;;23.38;12.35;;;;;;;;;;5071798;28;20036;-59
2021/03/07 02:59:36;;;;;;;22.42;11.00;;;;;;;;;;5052931;28;20044;-59
2021/03/07 03:02:03;;;;;;;20.20;10.13;;;;;;;;;;5072014;28;20031;-59
2021/03/07 03:04:29;;;;;;;19.40;10.98;;;;;;;;;;5070783;28;20361;-60
2021/03/07 03:06:55;;;;;;;22.40;10.82;;;;;;;;;;5071601;28;20067;-59
2021/03/07 03:09:21;;;;;;;20.42;10.43;;;;;;;;;;5071521;28;20115;-58
2021/03/07 03:11:47;;;;;;;21.08;11.50;;;;;;;;;;5053844;28;20037;-60
2021/03/07 03:14:14;;;;;;;22.45;11.55;;;;;;;;;;5071674;28;20028;-60
2021/03/07 03:16:44;;;;;;;24.75;10.80;;;;;;;;;;5071090;28;20036;-59
2021/03/07 03:19:10;;;;;;;17.50;10.10;;;;;;;;;;5071488;28;20598;-59
2021/03/07 03:21:36;;;;;;;22.67;11.87;;;;;;;;;;5053030;28;20024;-58
2021/03/07 03:24:01;;;;;;;29.93;11.27;;;;;;;;;;5053622;28;20729;-60
2021/03/07 03:26:28;;;;;;;20.70;11.98;;;;;;;;;;5070837;28;20068;-58
2021/03/07 03:28:54;;;;;;;21.67;10.55;;;;;;;;;;5071529;28;20039;-58
2021/03/07 03:31:20;;;;;;;20.42;10.77;;;;;;;;;;5071571;28;20033;-59
2021/03/07 03:33:46;;;;;;;20.83;10.10;;;;;;;;;;5071665;28;20039;-60
2021/03/07 03:36:11;;;;;;;24.60;11.63;;;;;;;;;;5072685;28;20035;-59
2021/03/07 03:38:57;;;;;;;22.27;10.63;;;;;;;;;;5071192;28;20755;-59
2021/03/07 03:41:24;;;;;;;25.30;10.98;;;;;;;;;;5036895;28;20534;-59
2021/03/07 03:43:51;;;;;;;17.63;10.32;;;;;;;;;;5071357;28;20099;-59
2021/03/07 03:46:18;;;;;;;25.73;11.13;;;;;;;;;;5053845;28;20379;-59
2021/03/07 03:48:45;;;;;;;24.33;10.05;;;;;;;;;;5071348;28;20057;-59
2021/03/07 03:51:10;;;;;;;19.05;10.20;;;;;;;;;;5053454;28;20040;-59
2021/03/07 03:53:40;;;;;;;15.27;7.97;;;;;;;;;;5070630;28;20028;-59
2021/03/07 03:56:06;;;;;;;19.98;11.40;;;;;;;;;;5071200;28;20135;-59
2021/03/07 03:58:33;;;;;;;19.65;9.32;;;;;;;;;;5070223;28;20104;-59
2021/03/07 04:00:58;;;;;;;22.60;10.95;;;;;;;;;;5071215;28;20094;-59
2021/03/07 04:03:24;;;;;;;17.80;9.47;;;;;;;;;;5052959;28;20501;-60
2021/03/07 04:05:50;;;;;;;18.75;10.77;;;;;;;;;;5052616;28;20047;-60
2021/03/07 04:08:16;;;;;;;23.40;9.77;;;;;;;;;;5055580;28;20029;-59
2021/03/07 04:10:42;;;;;;;18.33;9.88;;;;;;;;;;5074157;28;20346;-60
2021/03/07 04:13:09;;;;;;;18.48;10.07;;;;;;;;;;5073513;28;20123;-59
2021/03/07 04:15:34;;;;;;;21.95;10.45;;;;;;;;;;5074277;28;20055;-60
2021/03/07 04:18:01;;;;;;;18.93;10.57;;;;;;;;;;5074778;28;20480;-58
2021/03/07 04:20:27;;;;;;;19.42;10.55;;;;;;;;;;5074483;28;20032;-59
2021/03/07 04:22:53;;;;;;;18.70;9.73;;;;;;;;;;5056080;28;20020;-59
2021/03/07 04:25:18;;;;;;;19.87;10.03;;;;;;;;;;5056625;28;20124;-58
2021/03/07 04:27:44;;;;;;;17.77;9.83;;;;;;;;;;5074564;28;20465;-58
2021/03/07 04:30:10;;;;;;;15.68;7.32;;;;;;;;;;5056448;28;20440;-58
2021/03/07 04:32:36;;;;;;;24.23;11.50;;;;;;;;;;5073780;28;20048;-59
2021/03/07 04:35:02;;;;;;;24.05;11.48;;;;;;;;;;5056252;28;20033;-59
2021/03/07 04:37:28;;;;;;;29.02;11.63;;;;;;;;;;5056266;28;20052;-60
2021/03/07 04:39:53;;;;;;;25.73;11.67;;;;;;;;;;5073826;28;20064;-58
2021/03/07 04:42:19;;;;;;;21.80;12.23;;;;;;;;;;5074121;28;20618;-63
2021/03/07 04:44:44;;;;;;;22.10;11.40;;;;;;;;;;5055853;28;20468;-59
2021/03/07 04:47:09;;;;;;;24.00;11.40;;;;;;;;;;5039598;28;20444;-59
2021/03/07 04:49:35;;;;;;;20.57;11.50;;;;;;;;;;5055459;28;20446;-58
2021/03/07 04:52:00;;;;;;;24.77;10.60;;;;;;;;;;5074157;28;20032;-59
2021/03/07 04:54:26;;;;;;;17.33;10.20;;;;;;;;;;5039512;28;20021;-58
2021/03/07 04:56:51;;;;;;;18.40;9.53;;;;;;;;;;5073114;28;20032;-58
2021/03/07 04:59:16;;;;;;;22.83;10.50;;;;;;;;;;5073804;28;20029;-58
2021/03/07 05:01:42;;;;;;;20.23;11.80;;;;;;;;;;5073178;28;20116;-59
2021/03/07 05:04:07;;;;;;;20.63;10.43;;;;;;;;;;5073618;28;20032;-60
2021/03/07 05:06:42;;;;;;;18.40;10.57;;;;;;;;;;5073485;28;20033;-59
2021/03/07 05:09:11;;;;;;;23.95;11.77;;;;;;;;;;5073643;28;20442;-58
2021/03/07 05:11:37;;;;;;;19.98;10.68;;;;;;;;;;5073310;28;20116;-58
2021/03/07 05:14:03;;;;;;;15.50;9.05;;;;;;;;;;5073761;28;20091;-59
2021/03/07 05:16:28;;;;;;;27.58;10.63;;;;;;;;;;5073460;28;20040;-59
2021/03/07 05:18:54;;;;;;;19.63;10.67;;;;;;;;;;5071631;28;20451;-58
2021/03/07 05:21:19;;;;;;;20.40;10.83;;;;;;;;;;5073505;28;20024;-58
2021/03/07 05:23:44;;;;;;;20.60;11.27;;;;;;;;;;5072886;28;20388;-58
2021/03/07 05:26:10;;;;;;;23.57;10.10;;;;;;;;;;5073450;28;20032;-59
2021/03/07 05:28:36;;;;;;;19.47;9.53;;;;;;;;;;5073368;28;20021;-59
2021/03/07 05:31:01;;;;;;;19.80;9.93;;;;;;;;;;5073046;28;20047;-58
2021/03/07 05:33:27;;;;;;;22.45;11.05;;;;;;;;;;5055117;28;20082;-58
2021/03/07 05:35:52;;;;;;;20.07;10.73;;;;;;;;;;5072630;28;20141;-58
2021/03/07 05:38:17;;;;;;;25.57;10.33;;;;;;;;;;5073714;28;20060;-59
2021/03/07 05:40:43;;;;;;;19.20;10.13;;;;;;;;;;5072383;28;20172;-60
2021/03/07 05:43:08;;;;;;;22.67;10.13;;;;;;;;;;5055309;28;20043;-59
2021/03/07 05:45:34;;;;;;;16.30;9.57;;;;;;;;;;5073232;28;20040;-58
2021/03/07 05:47:59;;;;;;;17.83;9.53;;;;;;;;;;5072304;28;20437;-58
2021/03/07 05:50:25;;;;;;;20.33;9.37;;;;;;;;;;5055131;28;20082;-58
2021/03/07 05:52:52;;;;;;;15.93;9.27;;;;;;;;;;5072918;28;20037;-59
2021/03/07 05:55:17;;;;;;;16.75;8.95;;;;;;;;;;5072853;28;20048;-59
2021/03/07 05:57:44;;;;;;;17.37;8.07;;;;;;;;;;5072360;28;20032;-60
2021/03/07 06:00:10;;;;;;;15.88;8.38;;;;;;;;;;5072894;28;20123;-59
2021/03/07 06:02:36;;;;;;;17.00;8.20;;;;;;;;;;5072649;28;20106;-58
2021/03/07 06:05:01;;;;;;;13.87;7.67;;;;;;;;;;5054446;28;20466;-59
2021/03/07 06:07:27;;;;;;;17.40;9.37;;;;;;;;;;5072651;28;20040;-59
2021/03/07 06:10:12;;;;;;;13.50;7.80;;;;;;;;;;5071829;28;20448;-59
2021/03/07 06:12:38;;;;;;;16.40;7.35;;;;;;;;;;5070176;28;20158;-59
2021/03/07 06:15:04;;;;;;;15.60;7.60;;;;;;;;;;5037429;28;20066;-59
2021/03/07 06:17:39;;;;;;;12.40;7.55;;;;;;;;;;5072414;28;20036;-61
2021/03/07 06:20:07;;;;;;;16.02;6.93;;;;;;;;;;5071861;28;20036;-59
2021/03/07 06:22:33;;;;;;;11.73;7.20;;;;;;;;;;5072578;28;20150;-59
2021/03/07 06:24:59;;;;;;;18.77;8.45;;;;;;;;;;5054249;28;20113;-58
2021/03/07 06:27:27;;;;;;;12.82;6.60;;;;;;;;;;5072201;28;20052;-59
2021/03/07 06:30:00;;;;;;;10.38;7.28;;;;;;;;;;5070892;28;20020;-58
2021/03/07 06:32:27;;;;;;;12.48;6.38;;;;;;;;;;5053955;28;20032;-60
2021/03/07 06:34:53;;;;;;;16.52;7.55;;;;;;;;;;5071508;28;20423;-58
2021/03/07 06:37:19;;;;;;;12.40;6.27;;;;;;;;;;5072285;28;20044;-59
2021/03/07 06:39:45;;;;;;;13.50;7.75;;;;;;;;;;5071947;28;20020;-58
2021/03/07 06:42:11;;;;;;;15.07;8.05;;;;;;;;;;5072374;28;20103;-58
2021/03/07 06:44:37;;;;;;;12.75;6.95;;;;;;;;;;5072254;28;20032;-59
2021/03/07 06:47:07;;;;;;;15.63;7.38;;;;;;;;;;5071153;28;20032;-59
2021/03/07 06:49:32;;;;;;;18.50;8.45;;;;;;;;;;5071920;28;20060;-58
2021/03/07 06:52:18;;;;;;;14.63;6.53;;;;;;;;;;5036864;28;20404;-58
2021/03/07 06:54:46;;;;;;;13.77;6.75;;;;;;;;;;5071220;28;20281;-57
2021/03/07 06:57:26;;;;;;;11.38;6.63;;;;;;;;;;5071658;28;20103;-59
2021/03/07 06:59:51;;;;;;;14.48;7.00;;;;;;;;;;5053004;28;20033;-59
2021/03/07 07:02:16;;;;;;;15.03;6.07;;;;;;;;;;5072024;28;20028;-59
2021/03/07 07:04:43;;;;;;;11.23;5.93;;;;;;;;;;5070383;28;20033;-58
2021/03/07 07:07:20;;;;;;;14.05;5.80;;;;;;;;;;5070906;28;20082;-63
2021/03/07 07:09:46;;;;;;;14.70;7.43;;;;;;;;;;5071985;28;20388;-59
2021/03/07 07:12:29;;;;;;;13.05;6.45;;;;;;;;;;5070871;28;20085;-59
2021/03/07 07:15:06;;;;;;;18.60;7.93;;;;;;;;;;5052927;28;20476;-59
2021/03/07 07:17:31;;;;;;;21.58;9.48;;;;;;;;;;5071248;28;20112;-59
2021/03/07 07:19:57;;;;;;;17.83;9.77;;;;;;;;;;5070639;28;20564;-59
2021/03/07 07:22:22;;;;;;;26.50;9.57;;;;;;;;;;5053727;28;20032;-59
2021/03/07 07:24:48;;;;;;;21.60;9.73;;;;;;;;;;5053572;28;20437;-59
2021/03/07 07:27:13;;;;;;;21.10;8.33;;;;;;;;;;5052508;28;20043;-59
2021/03/07 07:29:39;;;;;;;14.83;7.23;;;;;;;;;;5071385;28;20396;-59
2021/03/07 07:32:22;;;;;;;16.47;7.37;;;;;;;;;;5070785;28;20028;-59
2021/03/07 07:34:50;;;;;;;12.02;6.22;;;;;;;;;;5071099;28;20025;-60
2021/03/07 07:37:27;;;;;;;16.23;6.82;;;;;;;;;;5053030;28;20028;-59
2021/03/07 07:39:53;;;;;;;15.18;6.90;;;;;;;;;;5070566;28;20032;-59
2021/03/07 07:42:30;;;;;;;13.73;4.97;;;;;;;;;;5072363;28;20029;-59
2021/03/07 07:44:57;;;;;;;10.63;5.40;;;;;;;;;;5075124;28;20029;-59
2021/03/07 07:47:23;;;;;;;11.90;4.88;;;;;;;;;;5075099;28;20020;-58
2021/03/07 07:49:49;;;;;;;14.17;6.23;;;;;;;;;;5057524;28;20192;-59
2021/03/07 07:52:23;;;;;;;12.18;6.00;;;;;;;;;;5040364;28;20037;-59
2021/03/07 07:54:55;;;;;;;13.05;4.80;;;;;;;;;;5075279;28;20028;-59
2021/03/07 07:57:32;;;;;;;14.05;5.25;;;;;;;;;;5057527;28;20137;-59
2021/03/07 08:00:18;;;;;;;11.80;5.07;;;;;;;;;;5074827;28;20052;-60
2021/03/07 08:02:46;;;;;;;11.50;5.15;;;;;;;;;;5075235;28;20035;-59
2021/03/07 08:05:20;;;;;;;8.68;4.47;;;;;;;;;;5074255;28;20032;-59
2021/03/07 08:08:05;;;;;;;9.98;5.88;;;;;;;;;;5074855;28;20169;-58
2021/03/07 08:10:36;;;;;;;10.23;4.63;;;;;;;;;;5057146;28;20040;-58
2021/03/07 08:13:02;;;;;;;10.00;4.75;;;;;;;;;;5074079;28;20070;-58
2021/03/07 08:15:28;;;;;;;9.57;4.35;;;;;;;;;;5074851;28;20401;-59
2021/03/07 08:17:59;;;;;;;6.80;3.57;;;;;;;;;;5074455;28;20108;-58
2021/03/07 08:20:37;;;;;;;7.95;3.88;;;;;;;;;;5074561;28;20041;-59
2021/03/07 08:23:02;;;;;;;12.40;4.43;;;;;;;;;;5074095;28;20021;-59
2021/03/07 08:25:47;;;;;;;16.40;5.13;;;;;;;;;;5074952;28;20033;-59
2021/03/07 08:28:38;;;;;;;11.93;3.58;;;;;;;;;;5073528;28;20376;-59
2021/03/07 08:31:03;;;;;;;10.52;4.55;;;;;;;;;;5064257;28;20043;-60
2021/03/07 08:33:30;;;;;;;13.17;4.53;;;;;;;;;;5074321;28;20028;-59
2021/03/07 08:36:17;;;;;;;10.13;4.43;;;;;;;;;;5056535;28;20032;-59
2021/03/07 08:38:48;;;;;;;11.90;4.38;;;;;;;;;;5074090;28;20266;-59
2021/03/07 08:41:13;;;;;;;9.88;4.25;;;;;;;;;;5065764;28;20044;-58
2021/03/07 08:43:39;;;;;;;8.50;4.63;;;;;;;;;;5074125;28;20043;-59
2021/03/07 08:46:08;;;;;;;11.23;5.10;;;;;;;;;;5073118;28;20032;-59
2021/03/07 08:48:35;;;;;;;10.02;5.47;;;;;;;;;;5072180;28;20480;-59
2021/03/07 08:51:02;;;;;;;8.77;5.33;;;;;;;;;;5073004;28;20027;-59
2021/03/07 08:53:27;;;;;;;;;;;;;;;;;;5073835;28;20040;-59
2021/03/07 08:55:52;;;;;;;15.63;6.13;;;;;;;;;;5073904;28;20391;-59
2021/03/07 08:58:18;;;;;;;12.30;6.47;;;;;;;;;;5074285;28;20437;-60
2021/03/07 09:00:45;;;;;;;10.25;6.35;;;;;;;;;;5074667;28;20028;-59
2021/03/07 09:03:17;;;;;;;11.27;6.35;;;;;;;;;;5072879;28;20136;-59
2021/03/07 09:05:42;;;;;;;14.38;7.35;;;;;;;;;;5073129;28;20166;-59
2021/03/07 09:08:08;;;;;;;13.33;7.20;;;;;;;;;;5073349;28;20025;-60
2021/03/07 09:10:33;;;;;;;16.90;6.93;;;;;;;;;;5074325;28;20508;-59
2021/03/07 09:13:20;;;;;;;13.57;6.83;;;;;;;;;;5074477;28;20112;-59
2021/03/07 09:15:50;;;;;;;19.33;8.68;;;;;;;;;;5073512;28;20021;-58
2021/03/07 09:18:16;;;;;;;13.20;7.13;;;;;;;;;;5070560;28;20029;-59
2021/03/07 09:20:43;;;;;;;15.07;8.13;;;;;;;;;;5071668;28;20468;-59
2021/03/07 09:23:08;;;;;;;;;;;;;;;;;;5071432;28;20017;-59
2021/03/07 09:25:33;;;;;;;16.37;8.73;;;;;;;;;;5072752;28;20265;-59
2021/03/07 09:27:59;;;;;;;11.90;8.37;;;;;;;;;;5069483;28;20115;-59
2021/03/07 09:30:24;;;;;;;16.00;8.40;;;;;;;;;;5067778;28;20162;-58
2021/03/07 09:32:50;;;;;;;15.63;8.33;;;;;;;;;;5071183;28;20064;-60
2021/03/07 09:35:16;;;;;;;12.85;8.15;;;;;;;;;;5069265;28;20063;-58
2021/03/07 09:37:41;;;;;;;14.37;8.03;;;;;;;;;;5072992;28;20029;-59
2021/03/07 09:40:10;;;;;;;17.17;7.30;;;;;;;;;;5070779;28;20518;-59
2021/03/07 09:42:35;;;;;;;14.60;6.35;;;;;;;;;;5072000;28;20118;-58
2021/03/07 09:45:00;;;;;;;8.87;6.07;;;;;;;;;;5050727;28;20040;-59
2021/03/07 09:47:26;;;;;;;12.53;5.30;;;;;;;;;;5071080;28;20044;-59
2021/03/07 09:49:52;;;;;;;11.77;5.27;;;;;;;;;;5072099;28;20024;-60
2021/03/07 09:52:17;;;;;;;8.32;4.00;;;;;;;;;;5069986;28;20460;-58
2021/03/07 09:55:00;;;;;;;6.83;3.97;;;;;;;;;;5071364;28;20032;-59
2021/03/07 09:57:26;;;;;;;6.90;4.60;;;;;;;;;;5068621;28;20245;-59
2021/03/07 09:59:52;;;;;;;6.90;4.30;;;;;;;;;;5071621;28;20269;-58
2021/03/07 10:02:18;;;;;;;8.93;4.30;;;;;;;;;;5070749;28;20028;-59
2021/03/07 10:04:47;;;;;;;6.60;4.67;;;;;;;;;;5070058;28;20058;-60
2021/03/07 10:07:13;;;;;;;8.20;4.53;;;;;;;;;;5070153;28;20368;-59
2021/03/07 10:09:57;;;;;;;6.43;3.47;;;;;;;;;;5053142;28;20276;-58
2021/03/07 10:12:23;;;;;;;5.57;3.27;;;;;;;;;;5069911;28;20392;-59
2021/03/07 10:14:52;;;;;;;6.03;4.13;;;;;;;;;;5053315;28;20254;-59
2021/03/07 10:17:18;;;;;;;5.20;3.67;;;;;;;;;;5070255;28;20029;-59
2021/03/07 10:19:43;;;;;;;6.17;3.43;;;;;;;;;;5070909;28;20264;-58
2021/03/07 10:22:09;;;;;;;4.97;3.20;;;;;;;;;;5034140;28;20262;-58
2021/03/07 10:24:34;;;;;;;6.20;3.53;;;;;;;;;;5069531;28;20029;-58
2021/03/07 10:27:01;;;;;;;6.22;4.30;;;;;;;;;;5070796;28;20380;-60
2021/03/07 10:29:37;;;;;;;8.27;4.20;;;;;;;;;;5070268;28;20070;-60
2021/03/07 10:32:09;;;;;;;7.47;4.47;;;;;;;;;;5070695;28;20260;-59
2021/03/07 10:34:39;;;;;;;8.37;4.30;;;;;;;;;;5068385;28;20294;-59
2021/03/07 10:37:05;;;;;;;7.13;4.90;;;;;;;;;;5070531;28;20265;-59
2021/03/07 10:39:30;;;;;;;6.55;4.30;;;;;;;;;;5070927;28;20326;-59
2021/03/07 10:42:09;;;;;;;10.10;4.88;;;;;;;;;;5068452;28;20044;-59
2021/03/07 10:44:35;;;;;;;5.37;3.47;;;;;;;;;;5072694;28;20036;-59
2021/03/07 10:47:15;;;;;;;6.90;3.78;;;;;;;;;;5072050;28;20036;-60
2021/03/07 10:49:40;;;;;;;7.73;3.27;;;;;;;;;;5072079;28;20032;-60
2021/03/07 10:52:06;;;;;;;5.85;3.35;;;;;;;;;;5072305;28;20385;-60
2021/03/07 10:54:31;;;;;;;6.03;3.40;;;;;;;;;;5071660;28;20024;-60
2021/03/07 10:56:57;;;;;;;4.68;3.08;;;;;;;;;;5071500;28;20116;-59
2021/03/07 10:59:23;;;;;;;7.97;3.60;;;;;;;;;;5071408;28;20020;-60
2021/03/07 11:01:48;;;;;;;6.10;3.77;;;;;;;;;;5054006;28;20476;-60
2021/03/07 11:04:14;;;;;;;6.70;3.42;;;;;;;;;;5071965;28;20066;-58
2021/03/07 11:06:39;;;;;;;4.28;2.90;;;;;;;;;;5058870;28;20043;-60
2021/03/07 11:09:05;;;;;;;5.60;3.67;;;;;;;;;;5072139;28;20028;-59
2021/03/07 11:11:33;;;;;;;5.20;3.42;;;;;;;;;;5070931;28;20102;-60
2021/03/07 11:13:58;;;;;;;6.43;3.77;;;;;;;;;;5052994;28;20127;-59
2021/03/07 11:16:23;;;;;;;7.10;3.60;;;;;;;;;;5036125;28;20832;-59
2021/03/07 11:18:49;;;;;;;6.93;3.53;;;;;;;;;;5071374;28;20024;-59
2021/03/07 11:21:14;;;;;;;6.43;3.70;;;;;;;;;;5070955;28;20013;-59
2021/03/07 11:23:40;;;;;;;6.87;3.87;;;;;;;;;;5071947;28;20051;-59
2021/03/07 11:26:05;;;;;;;6.05;3.88;;;;;;;;;;5071430;28;20029;-59
2021/03/07 11:28:31;;;;;;;9.65;4.15;;;;;;;;;;5052383;28;20041;-58
2021/03/07 11:30:56;;;;;;;5.60;3.97;;;;;;;;;;5071676;28;20025;-58
2021/03/07 11:33:22;;;;;;;7.32;3.80;;;;;;;;;;5070563;28;20253;-59
2021/03/07 11:35:47;;;;;;;8.25;4.18;;;;;;;;;;5053904;28;20411;-59
2021/03/07 11:38:13;;;;;;;6.13;4.10;;;;;;;;;;5071326;28;20483;-58
2021/03/07 11:40:38;;;;;;;7.87;4.10;;;;;;;;;;5016455;28;20049;-60
2021/03/07 11:43:04;;;;;;;9.23;3.77;;;;;;;;;;5050912;28;20056;-59
2021/03/07 11:45:30;;;;;;;6.03;3.65;;;;;;;;;;5012640;28;20144;-59
2021/03/07 11:47:55;;;;;;;5.87;4.10;;;;;;;;;;5031276;28;20397;-59
2021/03/07 11:50:20;;;;;;;8.53;3.50;;;;;;;;;;5029963;28;20370;-59
2021/03/07 11:52:46;;;;;;;5.90;3.50;;;;;;;;;;5031025;28;20064;-59
2021/03/07 11:55:11;;;;;;;6.03;3.83;;;;;;;;;;5031144;28;20033;-59
2021/03/07 11:57:37;;;;;;;5.97;3.60;;;;;;;;;;5035692;28;20060;-60
2021/03/07 12:00:04;;;;;;;6.83;3.90;;;;;;;;;;5050763;28;20128;-59
2021/03/07 12:02:37;;;;;;;8.90;4.10;;;;;;;;;;5050248;28;20037;-59
2021/03/07 12:05:03;;;;;;;6.20;3.97;;;;;;;;;;5016968;28;20607;-59
2021/03/07 12:07:29;;;;;;;8.97;4.93;;;;;;;;;;5050159;28;20025;-59
2021/03/07 12:09:54;;;;;;;10.17;4.77;;;;;;;;;;5033589;28;20273;-60
2021/03/07 12:12:19;;;;;;;11.80;5.20;;;;;;;;;;5049796;28;20052;-60
2021/03/07 12:14:45;;;;;;;5.83;4.40;;;;;;;;;;5050975;28;20029;-59
2021/03/07 12:17:10;;;;;;;6.25;4.03;;;;;;;;;;5033267;28;20477;-59
2021/03/07 12:19:36;;;;;;;9.67;5.83;;;;;;;;;;5050584;28;20341;-59
2021/03/07 12:22:01;;;;;;;11.30;5.07;;;;;;;;;;5051212;28;20056;-60
2021/03/07 12:24:29;;;;;;;8.07;4.17;;;;;;;;;;5032357;28;20075;-60
2021/03/07 12:26:54;;;;;;;5.87;3.67;;;;;;;;;;5032453;28;20286;-59
2021/03/07 12:29:20;;;;;;;8.30;3.43;;;;;;;;;;5053330;28;20721;-59
2021/03/07 12:31:46;;;;;;;7.35;4.00;;;;;;;;;;5054666;28;20100;-59
2021/03/07 12:34:11;;;;;;;6.07;3.60;;;;;;;;;;5054625;28;20437;-59
2021/03/07 12:36:36;;;;;;;5.60;3.57;;;;;;;;;;5054498;28;20060;-59
2021/03/07 12:39:02;;;;;;;6.50;3.70;;;;;;;;;;5064984;28;20337;-60
2021/03/07 12:41:27;;;;;;;7.15;3.72;;;;;;;;;;5076316;28;20405;-59
2021/03/07 12:43:53;;;;;;;8.97;3.60;;;;;;;;;;5074608;28;20067;-59
2021/03/07 12:46:18;;;;;;;12.70;5.30;;;;;;;;;;5072674;28;20273;-59
2021/03/07 12:48:44;;;;;;;11.70;5.43;;;;;;;;;;5072413;28;20032;-61
2021/03/07 12:51:09;;;;;;;8.00;3.77;;;;;;;;;;5074429;28;20028;-60
2021/03/07 12:53:34;;;;;;;10.50;5.37;;;;;;;;;;5072255;28;20376;-59
2021/03/07 12:56:00;;;;;;;7.07;3.70;;;;;;;;;;5073400;28;20048;-59
2021/03/07 12:58:25;;;;;;;8.10;3.83;;;;;;;;;;5072834;28;20032;-58
2021/03/07 13:00:51;;;;;;;9.77;3.57;;;;;;;;;;5073574;28;20123;-59
2021/03/07 13:03:16;;;;;;;11.68;4.07;;;;;;;;;;5073670;28;20031;-60
2021/03/07 13:05:41;;;;;;;10.13;5.00;;;;;;;;;;5073203;28;20028;-59
2021/03/07 13:08:07;;;;;;;9.00;4.13;;;;;;;;;;5072798;28;20380;-60
2021/03/07 13:10:32;;;;;;;7.00;3.23;;;;;;;;;;5073107;28;20041;-60
2021/03/07 13:12:58;;;;;;;11.53;5.37;;;;;;;;;;5073712;28;20050;-59
2021/03/07 13:15:23;;;;;;;8.77;3.63;;;;;;;;;;5073711;28;20330;-58
2021/03/07 13:17:48;;;;;;;6.67;2.80;;;;;;;;;;5073038;28;20066;-59
2021/03/07 13:20:14;;;;;;;7.43;2.60;;;;;;;;;;5073611;28;20085;-60
2021/03/07 13:22:39;;;;;;;4.85;2.55;;;;;;;;;;5073402;28;20108;-60
2021/03/07 13:25:05;;;;;;;5.53;3.55;;;;;;;;;;5072949;28;20032;-59
2021/03/07 13:27:31;;;;;;;4.28;2.70;;;;;;;;;;5070155;28;20047;-58
2021/03/07 13:29:56;;;;;;;5.03;3.10;;;;;;;;;;5071776;28;20112;-58
2021/03/07 13:32:22;;;;;;;4.00;2.40;;;;;;;;;;5072912;28;20036;-59
2021/03/07 13:34:47;;;;;;;4.17;2.60;;;;;;;;;;5071275;28;20344;-59
2021/03/07 13:37:12;;;;;;;5.90;3.10;;;;;;;;;;5072057;28;20102;-59
2021/03/07 13:39:38;;;;;;;7.33;2.80;;;;;;;;;;5071974;28;20028;-59
2021/03/07 13:42:04;;;;;;;6.20;2.67;;;;;;;;;;5072279;28;20049;-59
2021/03/07 13:44:29;;;;;;;8.95;4.38;;;;;;;;;;5054619;28;20056;-59
2021/03/07 13:46:54;;;;;;;6.53;3.20;;;;;;;;;;5055133;28;20375;-58
2021/03/07 13:49:20;;;;;;;6.17;3.33;;;;;;;;;;5073049;28;20036;-59
2021/03/07 13:51:46;;;;;;;4.93;3.17;;;;;;;;;;5054594;28;20036;-59
2021/03/07 13:54:12;;;;;;;8.48;5.10;;;;;;;;;;5055069;28;20123;-59
2021/03/07 13:56:37;;;;;;;6.20;3.70;;;;;;;;;;5072416;28;20071;-60
2021/03/07 13:59:03;;;;;;;9.33;3.77;;;;;;;;;;5072255;28;20035;-59
2021/03/07 14:01:28;;;;;;;17.43;7.20;;;;;;;;;;5054776;28;20029;-58
2021/03/07 14:03:53;;;;;;;23.93;11.77;;;;;;;;;;5071873;28;20055;-58
2021/03/07 14:06:19;;;;;;;9.20;5.27;;;;;;;;;;5072501;28;20028;-59
2021/03/07 14:08:44;;;;;;;29.43;17.10;;;;;;;;;;5053869;28;20056;-58
2021/03/07 14:11:09;;;;;;;15.67;7.27;;;;;;;;;;5038183;28;20051;-60
2021/03/07 14:13:35;;;;;;;9.27;3.90;;;;;;;;;;5069913;28;20487;-58
2021/03/07 14:16:00;;;;;;;10.77;4.67;;;;;;;;;;5053306;28;20020;-58
2021/03/07 14:18:25;;;;;;;11.90;4.10;;;;;;;;;;5070791;28;20043;-59
2021/03/07 14:20:51;;;;;;;11.97;5.53;;;;;;;;;;5070482;28;20787;-58
2021/03/07 14:23:16;;;;;;;8.87;4.10;;;;;;;;;;5052460;28;20369;-58
2021/03/07 14:25:41;;;;;;;10.30;5.00;;;;;;;;;;5070540;28;20043;-59
2021/03/07 14:28:09;;;;;;;13.13;6.23;;;;;;;;;;5070912;28;20033;-59
2021/03/07 14:30:34;;;;;;;13.00;7.00;;;;;;;;;;5036221;28;20064;-58
2021/03/07 14:32:59;;;;;;;14.10;6.10;;;;;;;;;;5069886;28;21166;-59